sensor_id;sensor_type;location;lat;lon;timestamp;P1;durP1;ratioP1;P2;durP2;ratioP2
10641;SDS011;5369;49.586;8.646;2023-03-01T00:00:41;15.70;;;10.83;;
10641;SDS011;5369;49.586;8.646;2023-03-01T00:03:11;19.70;;;11.67;;
10641;SDS011;5369;49.586;8.646;2023-03-01T00:05:47;16.13;;;10.50;;
10641;SDS011;5369;49.586;8.646;2023-03-01T00:08:13;16.47;;;11.70;;
10641;SDS011;5369;49.586;8.646;2023-03-01T00:10:40;16.63;;;11.27;;
10641;SDS011;5369;49.586;8.646;2023-03-01T00:13:06;16.17;;;10.90;;
10641;SDS011;5369;49.586;8.646;2023-03-01T00:15:32;16.97;;;10.80;;
10641;SDS011;5369;49.586;8.646;2023-03-01T00:18:00;17.70;;;12.27;;
10641;SDS011;5369;49.586;8.646;2023-03-01T00:20:26;18.13;;;12.30;;
10641;SDS011;5369;49.586;8.646;2023-03-01T00:22:52;16.17;;;11.27;;
10641;SDS011;5369;49.586;8.646;2023-03-01T00:25:18;17.17;;;11.30;;
10641;SDS011;5369;49.586;8.646;2023-03-01T00:27:44;18.23;;;11.17;;
10641;SDS011;5369;49.586;8.646;2023-03-01T00:30:12;17.67;;;11.03;;
10641;SDS011;5369;49.586;8.646;2023-03-01T00:32:39;17.10;;;11.83;;
10641;SDS011;5369;49.586;8.646;2023-03-01T00:35:05;18.97;;;11.60;;
10641;SDS011;5369;49.586;8.646;2023-03-01T00:37:31;18.73;;;11.93;;
10641;SDS011;5369;49.586;8.646;2023-03-01T00:39:57;20.43;;;11.40;;
10641;SDS011;5369;49.586;8.646;2023-03-01T00:42:23;18.33;;;12.07;;
10641;SDS011;5369;49.586;8.646;2023-03-01T00:44:50;19.87;;;11.73;;
10641;SDS011;5369;49.586;8.646;2023-03-01T00:47:16;19.83;;;12.50;;
10641;SDS011;5369;49.586;8.646;2023-03-01T00:49:42;17.77;;;11.80;;
10641;SDS011;5369;49.586;8.646;2023-03-01T00:52:08;17.97;;;11.77;;
10641;SDS011;5369;49.586;8.646;2023-03-01T00:54:34;18.73;;;12.30;;
10641;SDS011;5369;49.586;8.646;2023-03-01T00:57:01;21.00;;;12.87;;
10641;SDS011;5369;49.586;8.646;2023-03-01T00:59:27;15.57;;;11.97;;
10641;SDS011;5369;49.586;8.646;2023-03-01T01:01:53;16.47;;;11.53;;
10641;SDS011;5369;49.586;8.646;2023-03-01T01:04:20;16.50;;;11.67;;
10641;SDS011;5369;49.586;8.646;2023-03-01T01:06:47;15.93;;;11.07;;
10641;SDS011;5369;49.586;8.646;2023-03-01T01:09:14;18.63;;;11.17;;
10641;SDS011;5369;49.586;8.646;2023-03-01T01:11:44;17.33;;;12.13;;
10641;SDS011;5369;49.586;8.646;2023-03-01T01:14:11;20.97;;;12.67;;
10641;SDS011;5369;49.586;8.646;2023-03-01T01:16:37;18.40;;;12.13;;
10641;SDS011;5369;49.586;8.646;2023-03-01T01:19:03;16.27;;;11.63;;
10641;SDS011;5369;49.586;8.646;2023-03-01T01:21:30;21.67;;;11.97;;
10641;SDS011;5369;49.586;8.646;2023-03-01T01:23:56;17.53;;;11.90;;
10641;SDS011;5369;49.586;8.646;2023-03-01T01:26:24;18.83;;;12.40;;
10641;SDS011;5369;49.586;8.646;2023-03-01T01:28:50;16.83;;;11.90;;
10641;SDS011;5369;49.586;8.646;2023-03-01T01:31:17;16.07;;;11.80;;
10641;SDS011;5369;49.586;8.646;2023-03-01T01:33:44;19.03;;;13.07;;
10641;SDS011;5369;49.586;8.646;2023-03-01T01:36:10;19.83;;;13.03;;
10641;SDS011;5369;49.586;8.646;2023-03-01T01:38:37;17.87;;;12.73;;
10641;SDS011;5369;49.586;8.646;2023-03-01T01:41:04;22.20;;;13.63;;
10641;SDS011;5369;49.586;8.646;2023-03-01T01:43:32;21.00;;;12.87;;
10641;SDS011;5369;49.586;8.646;2023-03-01T01:45:59;19.23;;;13.17;;
10641;SDS011;5369;49.586;8.646;2023-03-01T01:48:41;18.83;;;12.53;;
10641;SDS011;5369;49.586;8.646;2023-03-01T01:51:12;20.93;;;13.57;;
10641;SDS011;5369;49.586;8.646;2023-03-01T01:53:39;19.53;;;12.73;;
10641;SDS011;5369;49.586;8.646;2023-03-01T01:56:06;19.23;;;12.63;;
10641;SDS011;5369;49.586;8.646;2023-03-01T01:58:33;20.93;;;13.17;;
10641;SDS011;5369;49.586;8.646;2023-03-01T02:00:59;18.97;;;12.87;;
10641;SDS011;5369;49.586;8.646;2023-03-01T02:03:27;19.00;;;12.83;;
10641;SDS011;5369;49.586;8.646;2023-03-01T02:08:25;20.33;;;13.73;;
10641;SDS011;5369;49.586;8.646;2023-03-01T02:10:52;20.50;;;13.70;;
10641;SDS011;5369;49.586;8.646;2023-03-01T02:13:19;20.37;;;12.97;;
10641;SDS011;5369;49.586;8.646;2023-03-01T02:15:45;20.13;;;13.30;;
10641;SDS011;5369;49.586;8.646;2023-03-01T02:18:13;20.47;;;13.27;;
10641;SDS011;5369;49.586;8.646;2023-03-01T02:23:25;19.53;;;13.40;;
10641;SDS011;5369;49.586;8.646;2023-03-01T02:25:55;19.50;;;13.50;;
10641;SDS011;5369;49.586;8.646;2023-03-01T02:30:50;17.43;;;12.67;;
10641;SDS011;5369;49.586;8.646;2023-03-01T02:33:36;21.13;;;12.97;;
10641;SDS011;5369;49.586;8.646;2023-03-01T02:36:04;20.00;;;13.67;;
10641;SDS011;5369;49.586;8.646;2023-03-01T02:38:32;19.87;;;13.13;;
10641;SDS011;5369;49.586;8.646;2023-03-01T02:40:58;19.33;;;12.87;;
10641;SDS011;5369;49.586;8.646;2023-03-01T02:43:27;20.90;;;13.10;;
10641;SDS011;5369;49.586;8.646;2023-03-01T02:45:57;20.97;;;13.23;;
10641;SDS011;5369;49.586;8.646;2023-03-01T02:48:23;18.40;;;12.57;;
10641;SDS011;5369;49.586;8.646;2023-03-01T02:53:33;19.97;;;12.47;;
10641;SDS011;5369;49.586;8.646;2023-03-01T02:56:01;19.43;;;12.63;;
10641;SDS011;5369;49.586;8.646;2023-03-01T02:58:28;21.57;;;12.93;;
10641;SDS011;5369;49.586;8.646;2023-03-01T03:00:54;21.17;;;13.90;;
10641;SDS011;5369;49.586;8.646;2023-03-01T03:03:21;21.67;;;14.17;;
10641;SDS011;5369;49.586;8.646;2023-03-01T03:05:47;20.47;;;13.73;;
10641;SDS011;5369;49.586;8.646;2023-03-01T03:08:14;18.47;;;13.07;;
10641;SDS011;5369;49.586;8.646;2023-03-01T03:10:49;18.27;;;11.97;;
10641;SDS011;5369;49.586;8.646;2023-03-01T03:13:15;18.83;;;12.00;;
10641;SDS011;5369;49.586;8.646;2023-03-01T03:15:42;19.53;;;13.00;;
10641;SDS011;5369;49.586;8.646;2023-03-01T03:18:13;17.90;;;12.37;;
10641;SDS011;5369;49.586;8.646;2023-03-01T03:20:39;19.97;;;12.57;;
10641;SDS011;5369;49.586;8.646;2023-03-01T03:23:05;16.60;;;11.90;;
10641;SDS011;5369;49.586;8.646;2023-03-01T03:25:31;21.50;;;13.20;;
10641;SDS011;5369;49.586;8.646;2023-03-01T03:27:58;20.53;;;12.87;;
10641;SDS011;5369;49.586;8.646;2023-03-01T03:30:28;20.67;;;13.17;;
10641;SDS011;5369;49.586;8.646;2023-03-01T03:32:55;21.17;;;13.30;;
10641;SDS011;5369;49.586;8.646;2023-03-01T03:35:26;22.30;;;13.57;;
10641;SDS011;5369;49.586;8.646;2023-03-01T03:37:55;23.33;;;14.53;;
10641;SDS011;5369;49.586;8.646;2023-03-01T03:40:29;23.37;;;14.10;;
10641;SDS011;5369;49.586;8.646;2023-03-01T03:42:55;22.13;;;14.13;;
10641;SDS011;5369;49.586;8.646;2023-03-01T03:45:21;23.10;;;14.43;;
10641;SDS011;5369;49.586;8.646;2023-03-01T03:47:47;21.00;;;14.30;;
10641;SDS011;5369;49.586;8.646;2023-03-01T03:50:14;25.07;;;15.33;;
10641;SDS011;5369;49.586;8.646;2023-03-01T03:52:41;24.30;;;14.90;;
10641;SDS011;5369;49.586;8.646;2023-03-01T03:55:08;21.40;;;13.67;;
10641;SDS011;5369;49.586;8.646;2023-03-01T03:57:36;23.27;;;13.80;;
10641;SDS011;5369;49.586;8.646;2023-03-01T04:00:02;21.50;;;13.93;;
10641;SDS011;5369;49.586;8.646;2023-03-01T04:02:43;23.53;;;14.33;;
10641;SDS011;5369;49.586;8.646;2023-03-01T04:05:10;21.73;;;13.80;;
10641;SDS011;5369;49.586;8.646;2023-03-01T04:07:37;21.57;;;14.30;;
10641;SDS011;5369;49.586;8.646;2023-03-01T04:10:04;22.30;;;15.07;;
10641;SDS011;5369;49.586;8.646;2023-03-01T04:12:31;23.77;;;14.87;;
10641;SDS011;5369;49.586;8.646;2023-03-01T04:14:59;23.17;;;15.30;;
10641;SDS011;5369;49.586;8.646;2023-03-01T04:17:25;24.77;;;15.17;;
10641;SDS011;5369;49.586;8.646;2023-03-01T04:19:52;24.40;;;15.23;;
10641;SDS011;5369;49.586;8.646;2023-03-01T04:22:18;24.00;;;15.03;;
10641;SDS011;5369;49.586;8.646;2023-03-01T04:24:44;25.30;;;15.00;;
10641;SDS011;5369;49.586;8.646;2023-03-01T04:27:11;23.23;;;15.20;;
10641;SDS011;5369;49.586;8.646;2023-03-01T04:29:37;23.63;;;14.93;;
10641;SDS011;5369;49.586;8.646;2023-03-01T04:32:03;24.00;;;14.93;;
10641;SDS011;5369;49.586;8.646;2023-03-01T04:34:30;25.70;;;15.63;;
10641;SDS011;5369;49.586;8.646;2023-03-01T04:36:56;23.80;;;15.53;;
10641;SDS011;5369;49.586;8.646;2023-03-01T04:39:22;22.87;;;15.13;;
10641;SDS011;5369;49.586;8.646;2023-03-01T04:41:48;25.07;;;15.33;;
10641;SDS011;5369;49.586;8.646;2023-03-01T04:44:14;21.23;;;14.50;;
10641;SDS011;5369;49.586;8.646;2023-03-01T04:46:40;25.70;;;15.73;;
10641;SDS011;5369;49.586;8.646;2023-03-01T04:49:07;21.90;;;14.97;;
10641;SDS011;5369;49.586;8.646;2023-03-01T04:51:33;23.77;;;15.13;;
10641;SDS011;5369;49.586;8.646;2023-03-01T04:53:59;21.53;;;14.90;;
10641;SDS011;5369;49.586;8.646;2023-03-01T04:56:25;21.93;;;14.60;;
10641;SDS011;5369;49.586;8.646;2023-03-01T04:58:55;26.47;;;16.07;;
10641;SDS011;5369;49.586;8.646;2023-03-01T05:01:21;25.93;;;15.03;;
10641;SDS011;5369;49.586;8.646;2023-03-01T05:03:48;23.97;;;15.20;;
10641;SDS011;5369;49.586;8.646;2023-03-01T05:06:15;21.30;;;14.50;;
10641;SDS011;5369;49.586;8.646;2023-03-01T05:08:42;22.63;;;16.95;;
10641;SDS011;5369;49.586;8.646;2023-03-01T05:11:09;22.73;;;14.80;;
10641;SDS011;5369;49.586;8.646;2023-03-01T05:13:36;22.80;;;14.63;;
10641;SDS011;5369;49.586;8.646;2023-03-01T05:16:03;22.67;;;14.93;;
10641;SDS011;5369;49.586;8.646;2023-03-01T05:18:31;21.77;;;14.13;;
10641;SDS011;5369;49.586;8.646;2023-03-01T05:21:02;21.87;;;15.00;;
10641;SDS011;5369;49.586;8.646;2023-03-01T05:23:29;21.50;;;14.40;;
10641;SDS011;5369;49.586;8.646;2023-03-01T05:25:59;20.60;;;14.83;;
10641;SDS011;5369;49.586;8.646;2023-03-01T05:28:26;22.30;;;13.57;;
10641;SDS011;5369;49.586;8.646;2023-03-01T05:30:53;21.43;;;13.77;;
10641;SDS011;5369;49.586;8.646;2023-03-01T05:33:20;21.53;;;13.80;;
10641;SDS011;5369;49.586;8.646;2023-03-01T05:35:47;20.37;;;13.50;;
10641;SDS011;5369;49.586;8.646;2023-03-01T05:38:14;22.57;;;14.43;;
10641;SDS011;5369;49.586;8.646;2023-03-01T05:40:40;22.50;;;14.70;;
10641;SDS011;5369;49.586;8.646;2023-03-01T05:43:07;20.77;;;13.53;;
10641;SDS011;5369;49.586;8.646;2023-03-01T05:45:33;24.83;;;15.33;;
10641;SDS011;5369;49.586;8.646;2023-03-01T05:48:01;33.60;;;26.45;;
10641;SDS011;5369;49.586;8.646;2023-03-01T05:50:28;24.23;;;17.17;;
10641;SDS011;5369;49.586;8.646;2023-03-01T05:52:58;22.03;;;14.93;;
10641;SDS011;5369;49.586;8.646;2023-03-01T05:55:25;22.70;;;14.20;;
10641;SDS011;5369;49.586;8.646;2023-03-01T05:57:51;20.20;;;13.03;;
10641;SDS011;5369;49.586;8.646;2023-03-01T06:00:19;23.50;;;15.03;;
10641;SDS011;5369;49.586;8.646;2023-03-01T06:02:47;22.03;;;15.00;;
10641;SDS011;5369;49.586;8.646;2023-03-01T06:05:13;21.97;;;14.63;;
10641;SDS011;5369;49.586;8.646;2023-03-01T06:07:40;23.83;;;14.93;;
10641;SDS011;5369;49.586;8.646;2023-03-01T06:10:07;21.23;;;13.93;;
10641;SDS011;5369;49.586;8.646;2023-03-01T06:12:34;22.53;;;14.37;;
10641;SDS011;5369;49.586;8.646;2023-03-01T06:15:00;19.70;;;13.30;;
10641;SDS011;5369;49.586;8.646;2023-03-01T06:17:30;22.07;;;14.30;;
10641;SDS011;5369;49.586;8.646;2023-03-01T06:19:57;21.03;;;14.73;;
10641;SDS011;5369;49.586;8.646;2023-03-01T06:22:23;21.00;;;13.70;;
10641;SDS011;5369;49.586;8.646;2023-03-01T06:24:49;22.10;;;14.20;;
10641;SDS011;5369;49.586;8.646;2023-03-01T06:27:16;23.30;;;14.87;;
10641;SDS011;5369;49.586;8.646;2023-03-01T06:29:47;20.40;;;14.17;;
10641;SDS011;5369;49.586;8.646;2023-03-01T06:32:14;23.40;;;15.00;;
10641;SDS011;5369;49.586;8.646;2023-03-01T06:34:40;23.80;;;13.50;;
10641;SDS011;5369;49.586;8.646;2023-03-01T06:37:06;20.67;;;14.23;;
10641;SDS011;5369;49.586;8.646;2023-03-01T06:39:33;20.87;;;14.60;;
10641;SDS011;5369;49.586;8.646;2023-03-01T06:41:59;21.37;;;13.90;;
10641;SDS011;5369;49.586;8.646;2023-03-01T06:44:25;25.37;;;17.03;;
10641;SDS011;5369;49.586;8.646;2023-03-01T06:46:52;21.73;;;14.67;;
10641;SDS011;5369;49.586;8.646;2023-03-01T06:49:18;23.17;;;15.07;;
10641;SDS011;5369;49.586;8.646;2023-03-01T06:51:45;21.77;;;13.67;;
10641;SDS011;5369;49.586;8.646;2023-03-01T06:54:11;21.67;;;14.20;;
10641;SDS011;5369;49.586;8.646;2023-03-01T06:56:38;24.97;;;15.90;;
10641;SDS011;5369;49.586;8.646;2023-03-01T06:59:04;24.23;;;14.87;;
10641;SDS011;5369;49.586;8.646;2023-03-01T07:01:30;23.97;;;15.87;;
10641;SDS011;5369;49.586;8.646;2023-03-01T07:03:57;22.10;;;14.97;;
10641;SDS011;5369;49.586;8.646;2023-03-01T07:06:23;24.17;;;15.57;;
10641;SDS011;5369;49.586;8.646;2023-03-01T07:08:49;24.13;;;16.07;;
10641;SDS011;5369;49.586;8.646;2023-03-01T07:11:15;23.40;;;15.43;;
10641;SDS011;5369;49.586;8.646;2023-03-01T07:13:42;26.70;;;15.43;;
10641;SDS011;5369;49.586;8.646;2023-03-01T07:16:08;23.07;;;14.73;;
10641;SDS011;5369;49.586;8.646;2023-03-01T07:18:34;20.23;;;13.07;;
10641;SDS011;5369;49.586;8.646;2023-03-01T07:21:05;22.47;;;14.43;;
10641;SDS011;5369;49.586;8.646;2023-03-01T07:23:31;21.93;;;14.60;;
10641;SDS011;5369;49.586;8.646;2023-03-01T07:25:59;24.00;;;14.83;;
10641;SDS011;5369;49.586;8.646;2023-03-01T07:28:25;21.67;;;14.40;;
10641;SDS011;5369;49.586;8.646;2023-03-01T07:30:52;24.07;;;14.63;;
10641;SDS011;5369;49.586;8.646;2023-03-01T07:33:19;22.57;;;14.60;;
10641;SDS011;5369;49.586;8.646;2023-03-01T07:35:47;19.63;;;13.60;;
10641;SDS011;5369;49.586;8.646;2023-03-01T07:38:15;21.33;;;14.30;;
10641;SDS011;5369;49.586;8.646;2023-03-01T07:40:43;22.63;;;15.17;;
10641;SDS011;5369;49.586;8.646;2023-03-01T07:43:09;20.60;;;13.90;;
10641;SDS011;5369;49.586;8.646;2023-03-01T07:45:35;23.00;;;15.00;;
10641;SDS011;5369;49.586;8.646;2023-03-01T07:48:01;22.53;;;15.47;;
10641;SDS011;5369;49.586;8.646;2023-03-01T07:50:28;22.00;;;13.93;;
10641;SDS011;5369;49.586;8.646;2023-03-01T07:52:54;21.97;;;14.80;;
10641;SDS011;5369;49.586;8.646;2023-03-01T07:55:20;23.00;;;15.03;;
10641;SDS011;5369;49.586;8.646;2023-03-01T07:57:48;24.33;;;15.50;;
10641;SDS011;5369;49.586;8.646;2023-03-01T08:00:14;24.83;;;14.37;;
10641;SDS011;5369;49.586;8.646;2023-03-01T08:02:40;22.37;;;15.43;;
10641;SDS011;5369;49.586;8.646;2023-03-01T08:05:07;23.63;;;15.27;;
10641;SDS011;5369;49.586;8.646;2023-03-01T08:07:35;23.50;;;14.77;;
10641;SDS011;5369;49.586;8.646;2023-03-01T08:10:02;21.93;;;14.53;;
10641;SDS011;5369;49.586;8.646;2023-03-01T08:12:32;24.20;;;15.30;;
10641;SDS011;5369;49.586;8.646;2023-03-01T08:15:00;19.33;;;13.73;;
10641;SDS011;5369;49.586;8.646;2023-03-01T08:17:26;20.87;;;14.03;;
10641;SDS011;5369;49.586;8.646;2023-03-01T08:19:55;21.63;;;14.27;;
10641;SDS011;5369;49.586;8.646;2023-03-01T08:22:22;21.77;;;14.63;;
10641;SDS011;5369;49.586;8.646;2023-03-01T08:24:48;21.30;;;14.33;;
10641;SDS011;5369;49.586;8.646;2023-03-01T08:27:15;23.83;;;15.70;;
10641;SDS011;5369;49.586;8.646;2023-03-01T08:29:42;24.37;;;15.10;;
10641;SDS011;5369;49.586;8.646;2023-03-01T08:32:11;23.63;;;15.77;;
10641;SDS011;5369;49.586;8.646;2023-03-01T08:34:37;24.23;;;14.60;;
10641;SDS011;5369;49.586;8.646;2023-03-01T08:37:03;23.60;;;16.33;;
10641;SDS011;5369;49.586;8.646;2023-03-01T08:39:29;21.60;;;15.57;;
10641;SDS011;5369;49.586;8.646;2023-03-01T08:41:56;23.73;;;15.43;;
10641;SDS011;5369;49.586;8.646;2023-03-01T08:44:25;23.30;;;16.00;;
10641;SDS011;5369;49.586;8.646;2023-03-01T08:46:52;24.63;;;16.30;;
10641;SDS011;5369;49.586;8.646;2023-03-01T08:49:20;22.57;;;15.73;;
10641;SDS011;5369;49.586;8.646;2023-03-01T08:51:48;21.73;;;14.90;;
10641;SDS011;5369;49.586;8.646;2023-03-01T08:54:19;25.80;;;16.20;;
10641;SDS011;5369;49.586;8.646;2023-03-01T08:56:45;24.87;;;17.00;;
10641;SDS011;5369;49.586;8.646;2023-03-01T08:59:12;23.90;;;15.77;;
10641;SDS011;5369;49.586;8.646;2023-03-01T09:01:38;24.60;;;16.97;;
10641;SDS011;5369;49.586;8.646;2023-03-01T09:04:06;22.97;;;16.43;;
10641;SDS011;5369;49.586;8.646;2023-03-01T09:06:34;22.03;;;15.50;;
10641;SDS011;5369;49.586;8.646;2023-03-01T09:09:01;23.87;;;15.80;;
10641;SDS011;5369;49.586;8.646;2023-03-01T09:11:27;23.57;;;16.60;;
10641;SDS011;5369;49.586;8.646;2023-03-01T09:13:53;24.47;;;16.20;;
10641;SDS011;5369;49.586;8.646;2023-03-01T09:16:20;25.77;;;17.03;;
10641;SDS011;5369;49.586;8.646;2023-03-01T09:18:50;23.90;;;16.07;;
10641;SDS011;5369;49.586;8.646;2023-03-01T09:21:17;25.07;;;16.83;;
10641;SDS011;5369;49.586;8.646;2023-03-01T09:23:45;24.07;;;16.60;;
10641;SDS011;5369;49.586;8.646;2023-03-01T09:26:12;24.70;;;16.17;;
10641;SDS011;5369;49.586;8.646;2023-03-01T09:28:39;24.33;;;16.47;;
10641;SDS011;5369;49.586;8.646;2023-03-01T09:31:09;25.87;;;16.20;;
10641;SDS011;5369;49.586;8.646;2023-03-01T09:33:38;23.40;;;16.23;;
10641;SDS011;5369;49.586;8.646;2023-03-01T09:36:05;24.07;;;16.10;;
10641;SDS011;5369;49.586;8.646;2023-03-01T09:38:32;24.13;;;16.40;;
10641;SDS011;5369;49.586;8.646;2023-03-01T09:40:59;24.97;;;16.40;;
10641;SDS011;5369;49.586;8.646;2023-03-01T09:45:52;25.17;;;16.97;;
10641;SDS011;5369;49.586;8.646;2023-03-01T09:48:20;23.80;;;17.27;;
10641;SDS011;5369;49.586;8.646;2023-03-01T09:50:48;24.27;;;16.40;;
10641;SDS011;5369;49.586;8.646;2023-03-01T09:53:16;23.10;;;16.47;;
10641;SDS011;5369;49.586;8.646;2023-03-01T09:55:48;25.80;;;17.03;;
10641;SDS011;5369;49.586;8.646;2023-03-01T10:00:54;22.20;;;15.03;;
10641;SDS011;5369;49.586;8.646;2023-03-01T10:03:26;23.80;;;15.93;;
10641;SDS011;5369;49.586;8.646;2023-03-01T10:06:11;25.57;;;16.83;;
10641;SDS011;5369;49.586;8.646;2023-03-01T10:08:51;22.57;;;15.27;;
10641;SDS011;5369;49.586;8.646;2023-03-01T10:11:24;23.87;;;16.70;;
10641;SDS011;5369;49.586;8.646;2023-03-01T10:13:59;23.30;;;16.43;;
10641;SDS011;5369;49.586;8.646;2023-03-01T10:19:12;22.17;;;16.40;;
10641;SDS011;5369;49.586;8.646;2023-03-01T10:21:44;21.80;;;15.73;;
10641;SDS011;5369;49.586;8.646;2023-03-01T10:24:12;22.17;;;15.57;;
10641;SDS011;5369;49.586;8.646;2023-03-01T10:26:52;23.93;;;16.50;;
10641;SDS011;5369;49.586;8.646;2023-03-01T10:29:22;23.30;;;16.50;;
10641;SDS011;5369;49.586;8.646;2023-03-01T10:31:50;24.50;;;16.03;;
10641;SDS011;5369;49.586;8.646;2023-03-01T10:34:29;25.10;;;17.07;;
10641;SDS011;5369;49.586;8.646;2023-03-01T10:37:29;23.53;;;16.37;;
10641;SDS011;5369;49.586;8.646;2023-03-01T10:40:08;25.77;;;17.30;;
10641;SDS011;5369;49.586;8.646;2023-03-01T10:42:39;22.40;;;16.10;;
10641;SDS011;5369;49.586;8.646;2023-03-01T10:48:08;23.33;;;16.93;;
10641;SDS011;5369;49.586;8.646;2023-03-01T10:50:37;25.30;;;16.33;;
10641;SDS011;5369;49.586;8.646;2023-03-01T10:53:05;24.37;;;16.30;;
10641;SDS011;5369;49.586;8.646;2023-03-01T10:55:41;24.73;;;16.67;;
10641;SDS011;5369;49.586;8.646;2023-03-01T10:58:19;24.03;;;17.17;;
10641;SDS011;5369;49.586;8.646;2023-03-01T11:00:47;23.90;;;16.40;;
10641;SDS011;5369;49.586;8.646;2023-03-01T11:03:21;22.60;;;15.70;;
10641;SDS011;5369;49.586;8.646;2023-03-01T11:05:53;23.30;;;17.07;;
10641;SDS011;5369;49.586;8.646;2023-03-01T11:09:13;24.67;;;15.83;;
10641;SDS011;5369;49.586;8.646;2023-03-01T11:11:19;21.80;;;15.37;;
10641;SDS011;5369;49.586;8.646;2023-03-01T11:16:32;20.93;;;15.87;;
10641;SDS011;5369;49.586;8.646;2023-03-01T11:21:34;23.60;;;16.07;;
10641;SDS011;5369;49.586;8.646;2023-03-01T11:24:05;21.40;;;15.77;;
10641;SDS011;5369;49.586;8.646;2023-03-01T11:26:39;20.77;;;14.93;;
10641;SDS011;5369;49.586;8.646;2023-03-01T11:32:05;20.30;;;15.03;;
10641;SDS011;5369;49.586;8.646;2023-03-01T11:34:55;23.57;;;15.97;;
10641;SDS011;5369;49.586;8.646;2023-03-01T11:37:31;23.50;;;16.20;;
10641;SDS011;5369;49.586;8.646;2023-03-01T11:40:10;21.20;;;15.40;;
10641;SDS011;5369;49.586;8.646;2023-03-01T11:42:48;22.53;;;16.27;;
10641;SDS011;5369;49.586;8.646;2023-03-01T11:45:22;25.03;;;17.13;;
10641;SDS011;5369;49.586;8.646;2023-03-01T11:51:04;22.02;;;16.50;;
10641;SDS011;5369;49.586;8.646;2023-03-01T11:58:05;20.47;;;14.77;;
10641;SDS011;5369;49.586;8.646;2023-03-01T12:03:25;20.73;;;15.73;;
10641;SDS011;5369;49.586;8.646;2023-03-01T12:14:23;19.70;;;15.83;;
10641;SDS011;5369;49.586;8.646;2023-03-01T12:28:06;22.33;;;15.53;;
10641;SDS011;5369;49.586;8.646;2023-03-01T12:38:42;19.23;;;15.33;;
10641;SDS011;5369;49.586;8.646;2023-03-01T12:43:47;18.40;;;15.03;;
10641;SDS011;5369;49.586;8.646;2023-03-01T12:49:10;16.10;;;13.90;;
10641;SDS011;5369;49.586;8.646;2023-03-01T12:51:43;19.53;;;14.83;;
10641;SDS011;5369;49.586;8.646;2023-03-01T12:54:22;18.87;;;15.17;;
10641;SDS011;5369;49.586;8.646;2023-03-01T12:56:52;16.77;;;13.70;;
10641;SDS011;5369;49.586;8.646;2023-03-01T12:59:30;17.03;;;13.73;;
10641;SDS011;5369;49.586;8.646;2023-03-01T13:02:23;16.90;;;13.70;;
10641;SDS011;5369;49.586;8.646;2023-03-01T13:07:39;16.60;;;13.77;;
10641;SDS011;5369;49.586;8.646;2023-03-01T13:10:26;20.03;;;14.53;;
10641;SDS011;5369;49.586;8.646;2023-03-01T13:20:46;16.60;;;13.73;;
10641;SDS011;5369;49.586;8.646;2023-03-01T13:33:45;13.97;;;11.97;;
10641;SDS011;5369;49.586;8.646;2023-03-01T13:36:48;17.70;;;12.03;;
10641;SDS011;5369;49.586;8.646;2023-03-01T13:39:27;13.97;;;11.97;;
10641;SDS011;5369;49.586;8.646;2023-03-01T13:41:55;14.60;;;12.07;;
10641;SDS011;5369;49.586;8.646;2023-03-01T13:44:30;13.67;;;11.67;;
10641;SDS011;5369;49.586;8.646;2023-03-01T13:49:27;14.33;;;11.97;;
10641;SDS011;5369;49.586;8.646;2023-03-01T13:51:59;13.60;;;11.87;;
10641;SDS011;5369;49.586;8.646;2023-03-01T13:54:29;15.13;;;12.70;;
10641;SDS011;5369;49.586;8.646;2023-03-01T13:56:57;14.90;;;13.10;;
10641;SDS011;5369;49.586;8.646;2023-03-01T13:59:24;12.90;;;11.63;;
10641;SDS011;5369;49.586;8.646;2023-03-01T14:01:57;14.63;;;11.83;;
10641;SDS011;5369;49.586;8.646;2023-03-01T14:04:27;13.70;;;12.20;;
10641;SDS011;5369;49.586;8.646;2023-03-01T14:07:10;24.50;;;12.47;;
10641;SDS011;5369;49.586;8.646;2023-03-01T14:09:38;27.70;;;12.13;;
10641;SDS011;5369;49.586;8.646;2023-03-01T14:14:44;14.50;;;11.40;;
10641;SDS011;5369;49.586;8.646;2023-03-01T14:19:46;13.73;;;10.90;;
10641;SDS011;5369;49.586;8.646;2023-03-01T14:22:30;12.67;;;10.73;;
10641;SDS011;5369;49.586;8.646;2023-03-01T14:25:02;12.97;;;10.67;;
10641;SDS011;5369;49.586;8.646;2023-03-01T14:27:33;13.90;;;10.60;;
10641;SDS011;5369;49.586;8.646;2023-03-01T14:30:09;15.03;;;11.70;;
10641;SDS011;5369;49.586;8.646;2023-03-01T14:32:37;12.67;;;10.27;;
10641;SDS011;5369;49.586;8.646;2023-03-01T14:35:19;12.17;;;10.50;;
10641;SDS011;5369;49.586;8.646;2023-03-01T14:37:46;15.87;;;11.40;;
10641;SDS011;5369;49.586;8.646;2023-03-01T14:40:33;12.67;;;11.30;;
10641;SDS011;5369;49.586;8.646;2023-03-01T14:43:08;12.97;;;11.27;;
10641;SDS011;5369;49.586;8.646;2023-03-01T14:45:38;11.97;;;10.67;;
10641;SDS011;5369;49.586;8.646;2023-03-01T14:48:05;12.17;;;10.63;;
10641;SDS011;5369;49.586;8.646;2023-03-01T14:50:36;12.47;;;10.47;;
10641;SDS011;5369;49.586;8.646;2023-03-01T14:53:06;14.33;;;11.10;;
10641;SDS011;5369;49.586;8.646;2023-03-01T14:55:40;13.00;;;10.20;;
10641;SDS011;5369;49.586;8.646;2023-03-01T14:58:12;13.83;;;10.57;;
10641;SDS011;5369;49.586;8.646;2023-03-01T15:00:48;13.53;;;10.40;;
10641;SDS011;5369;49.586;8.646;2023-03-01T15:03:29;14.87;;;10.93;;
10641;SDS011;5369;49.586;8.646;2023-03-01T15:05:57;13.10;;;9.70;;
10641;SDS011;5369;49.586;8.646;2023-03-01T15:08:25;13.27;;;10.53;;
10641;SDS011;5369;49.586;8.646;2023-03-01T15:11:04;14.47;;;10.43;;
10641;SDS011;5369;49.586;8.646;2023-03-01T15:13:36;13.37;;;10.00;;
10641;SDS011;5369;49.586;8.646;2023-03-01T15:16:15;14.67;;;10.13;;
10641;SDS011;5369;49.586;8.646;2023-03-01T15:18:50;12.90;;;9.30;;
10641;SDS011;5369;49.586;8.646;2023-03-01T15:24:01;13.77;;;9.47;;
10641;SDS011;5369;49.586;8.646;2023-03-01T15:26:37;12.10;;;9.60;;
10641;SDS011;5369;49.586;8.646;2023-03-01T15:29:10;12.20;;;9.00;;
10641;SDS011;5369;49.586;8.646;2023-03-01T15:31:55;12.87;;;9.70;;
10641;SDS011;5369;49.586;8.646;2023-03-01T15:34:23;12.30;;;8.90;;
10641;SDS011;5369;49.586;8.646;2023-03-01T15:36:51;12.10;;;9.33;;
10641;SDS011;5369;49.586;8.646;2023-03-01T15:39:40;13.43;;;9.60;;
10641;SDS011;5369;49.586;8.646;2023-03-01T15:42:12;13.33;;;9.80;;
10641;SDS011;5369;49.586;8.646;2023-03-01T15:44:42;14.63;;;9.70;;
10641;SDS011;5369;49.586;8.646;2023-03-01T15:47:22;13.97;;;10.43;;
10641;SDS011;5369;49.586;8.646;2023-03-01T15:49:50;12.77;;;9.27;;
10641;SDS011;5369;49.586;8.646;2023-03-01T15:52:21;14.47;;;10.33;;
10641;SDS011;5369;49.586;8.646;2023-03-01T15:54:56;12.50;;;9.50;;
10641;SDS011;5369;49.586;8.646;2023-03-01T15:57:25;25.30;;;16.00;;
10641;SDS011;5369;49.586;8.646;2023-03-01T15:59:54;13.20;;;9.37;;
10641;SDS011;5369;49.586;8.646;2023-03-01T16:02:24;12.07;;;8.80;;
10641;SDS011;5369;49.586;8.646;2023-03-01T16:04:53;12.53;;;9.00;;
10641;SDS011;5369;49.586;8.646;2023-03-01T16:07:23;12.27;;;9.00;;
10641;SDS011;5369;49.586;8.646;2023-03-01T16:09:52;11.67;;;8.67;;
10641;SDS011;5369;49.586;8.646;2023-03-01T16:12:18;13.07;;;8.63;;
10641;SDS011;5369;49.586;8.646;2023-03-01T16:14:46;27.03;;;16.40;;
10641;SDS011;5369;49.586;8.646;2023-03-01T16:17:13;16.47;;;10.13;;
10641;SDS011;5369;49.586;8.646;2023-03-01T16:19:40;19.47;;;13.30;;
10641;SDS011;5369;49.586;8.646;2023-03-01T16:22:08;12.97;;;9.40;;
10641;SDS011;5369;49.586;8.646;2023-03-01T16:24:34;14.67;;;9.93;;
10641;SDS011;5369;49.586;8.646;2023-03-01T16:27:01;11.53;;;8.63;;
10641;SDS011;5369;49.586;8.646;2023-03-01T16:29:27;11.00;;;8.90;;
10641;SDS011;5369;49.586;8.646;2023-03-01T16:31:54;14.03;;;9.90;;